Time;durP1;ratioP1;P1;durP2;ratioP2;P2;SDS_P1;SDS_P2;PMS_P1;PMS_P2;Temp;Humidity;BMP_temperature;BMP_pressure;BME280_temperature;BME280_humidity;BME280_pressure;Samples;Min_cycle;Max_cycle;Signal;HPM_P1;HPM_P2
2023/07/22 00:02:13;;;;;;;;;6.00;2.00;;;;;21.00;35.57;101362.88;4902239;28;45354;-90
2023/07/22 00:04:38;;;;;;;;;5.00;5.00;;;;;21.02;35.53;101373.38;4901906;28;45571;-90
2023/07/22 00:07:04;;;;;;;;;5.67;5.00;;;;;20.90;35.51;101365.34;4900991;28;45423;-90
2023/07/22 00:09:33;;;;;;;;;5.00;5.00;;;;;20.89;35.65;101368.09;4901142;29;45291;-90
2023/07/22 05:49:06;;;;;;;;;8.50;7.00;;;;;17.56;45.71;101352.53;584150;23;46118;-89
2023/07/22 11:25:48;;;;;;;;;4.33;4.00;;;;;25.77;33.35;101241.44;931193;23;45779;-95
2023/07/22 15:46:23;;;;;;;;;4.33;3.33;;;;;28.31;27.16;101029.47;4918104;28;45587;-90
2023/07/22 15:48:48;;;;;;;;;4.67;4.67;;;;;28.31;26.74;101018.78;4912575;28;45852;-90
2023/07/22 15:51:14;;;;;;;;;4.00;4.00;;;;;28.27;27.09;101018.25;4914607;28;46413;-91
2023/07/22 15:53:39;;;;;;;;;4.00;3.67;;;;;28.26;27.38;101016.59;4914669;28;45366;-90
2023/07/22 15:56:04;;;;;;;;;3.67;3.67;;;;;28.24;27.03;101010.56;4912500;28;45575;-88
2023/07/22 15:58:30;;;;;;;;;4.67;4.67;;;;;28.21;26.87;101010.88;4930224;28;45400;-91
2023/07/22 16:01:10;;;;;;;;;5.00;5.00;;;;;28.19;27.21;101005.66;4912739;28;45548;-90
2023/07/22 16:03:37;;;;;;;;;4.00;4.00;;;;;28.22;27.01;101012.53;4911886;28;45548;-90
2023/07/22 16:06:03;;;;;;;;;5.75;5.75;;;;;28.23;27.31;101004.38;4908298;28;45519;-92
2023/07/22 16:08:29;;;;;;;;;6.00;4.33;;;;;28.16;27.37;100992.66;4915305;28;45385;-90
2023/07/22 16:10:54;;;;;;;;;4.33;4.33;;;;;28.15;27.29;100991.78;4912659;28;47253;-91
2023/07/22 16:13:19;;;;;;;;;3.33;3.33;;;;;28.18;27.44;101003.19;4912693;28;45695;-91
2023/07/22 16:15:45;;;;;;;;;3.00;3.00;;;;;28.14;27.33;100991.97;4912673;28;45695;-90
2023/07/22 16:18:12;;;;;;;;;4.33;4.33;;;;;28.10;27.36;100987.97;4914045;28;45381;-91
2023/07/22 16:20:38;;;;;;;;;5.00;5.00;;;;;28.07;26.92;100983.78;4897770;28;46371;-90
2023/07/22 16:23:03;;;;;;;;;3.33;3.33;;;;;28.05;27.25;100985.75;4894525;28;45483;-91
2023/07/22 16:25:28;;;;;;;;;5.00;3.25;;;;;28.00;27.38;100975.56;4912285;28;45636;-87
2023/07/22 16:27:54;;;;;;;;;5.50;5.50;;;;;27.95;27.51;100977.06;4914571;28;45733;-90
2023/07/22 16:30:19;;;;;;;;;11.00;11.00;;;;;27.94;27.49;100964.69;4915165;28;45823;-90
2023/07/22 16:32:44;;;;;;;;;7.00;6.00;;;;;27.92;27.69;100970.22;4912788;28;45701;-91
2023/07/22 16:35:10;;;;;;;;;10.00;10.00;;;;;27.88;27.22;100969.72;4912066;28;45522;-89
2023/07/22 16:37:36;;;;;;;;;5.33;5.33;;;;;27.84;27.17;100968.38;4925219;28;45718;-90
2023/07/22 16:40:10;;;;;;;;;6.25;6.25;;;;;27.84;27.29;100971.03;4928530;28;47787;-90
2023/07/22 16:42:57;;;;;;;;;4.67;4.67;;;;;27.81;27.48;100959.84;4912287;28;45608;-90
2023/07/22 16:45:22;;;;;;;;;3.00;3.00;;;;;27.79;27.15;100959.16;4891088;29;45497;-89
2023/07/22 16:47:48;;;;;;;;;7.00;4.67;;;;;27.77;27.53;100945.94;4892292;29;45528;-91
2023/07/22 16:50:16;;;;;;;;;6.75;5.00;;;;;27.76;27.28;100949.63;4893006;29;47321;-90
2023/07/22 16:52:41;;;;;;;;;4.67;4.00;;;;;27.73;27.61;100952.63;4876148;29;45466;-91
2023/07/22 16:55:09;;;;;;;;;3.00;3.00;;;;;27.72;27.52;100946.44;4891051;29;45483;-90
2023/07/22 16:57:35;;;;;;;;;4.00;4.00;;;;;27.72;27.32;100956.31;4875228;29;46064;-89
2023/07/22 17:00:01;;;;;;;;;4.00;4.00;;;;;27.68;27.41;100944.28;4896030;28;46287;-90
2023/07/22 17:02:35;;;;;;;;;6.00;4.67;;;;;27.69;27.15;100937.91;4888169;29;45532;-91
2023/07/22 17:05:00;;;;;;;;;3.67;3.67;;;;;27.68;26.93;100931.72;4895045;29;45499;-91
2023/07/22 17:07:27;;;;;;;;;4.00;4.00;;;;;27.67;26.97;100942.59;4880288;29;45582;-91
2023/07/22 17:10:12;;;;;;;;;2.67;2.67;;;;;27.63;26.94;100934.03;4880107;29;46892;-90
2023/07/22 17:12:37;;;;;;;;;3.00;3.00;;;;;27.59;27.08;100938.06;4836815;28;45625;-91
2023/07/22 17:15:06;;;;;;;;;5.00;3.00;;;;;27.57;26.90;100930.19;4898658;29;45417;-88
2023/07/22 17:17:31;;;;;;;;;3.67;3.67;;;;;27.56;27.21;100928.50;4899013;29;45706;-90
2023/07/22 17:19:57;;;;;;;;;4.25;4.25;;;;;27.53;26.83;100928.81;4898584;29;45665;-90
2023/07/22 17:22:22;;;;;;;;;6.00;3.33;;;;;27.51;27.04;100920.13;4898780;29;45300;-91
2023/07/22 17:24:47;;;;;;;;;11.75;11.75;;;;;27.51;26.99;100913.94;4899030;29;44907;-90
2023/07/22 17:27:13;;;;;;;;;7.00;7.00;;;;;27.51;27.31;100921.97;4898096;28;45430;-90
2023/07/22 17:29:38;;;;;;;;;5.00;5.00;;;;;27.51;27.21;100908.59;4889945;29;48249;-89
2023/07/22 17:32:04;;;;;;;;;3.75;3.00;;;;;27.52;26.83;100903.09;4899997;29;45455;-90
2023/07/22 17:34:29;;;;;;;;;6.25;4.25;;;;;27.48;27.43;100915.09;4900191;29;45517;-90
2023/07/22 17:36:55;;;;;;;;;3.00;3.00;;;;;27.47;27.03;100903.59;4899987;29;45521;-91
2023/07/22 17:39:20;;;;;;;;;6.00;4.00;;;;;27.45;27.13;100907.44;4899795;29;46994;-90
2023/07/22 17:41:46;;;;;;;;;2.25;2.25;;;;;27.46;27.05;100904.56;4915807;28;45423;-90
2023/07/22 17:44:12;;;;;;;;;3.25;3.25;;;;;27.41;27.00;100900.75;4917229;28;45724;-91
2023/07/22 17:46:39;;;;;;;;;4.25;4.25;;;;;27.34;26.82;100900.53;4908051;28;45950;-89
2023/07/22 17:49:05;;;;;;;;;12.50;12.50;;;;;27.29;27.12;100898.38;4914753;28;47346;-89
2023/07/22 17:51:30;;;;;;;;;18.50;18.25;;;;;27.25;27.62;100891.66;4912810;28;46055;-90
2023/07/22 17:53:55;;;;;;;;;20.50;19.00;;;;;27.21;27.33;100901.84;4910919;28;45554;-90
2023/07/22 17:56:21;;;;;;;;;16.75;15.75;;;;;27.17;27.17;100886.31;4910263;28;45375;-89
2023/07/22 17:58:46;;;;;;;;;11.75;10.50;;;;;27.14;27.81;100887.47;4902239;28;45962;-90
2023/07/22 18:01:11;;;;;;;;;5.00;5.00;;;;;27.09;27.59;100879.09;4922280;28;45430;-89
2023/07/22 18:03:37;;;;;;;;;5.33;5.33;;;;;27.03;27.14;100875.22;4901534;28;46120;-89
2023/07/22 18:06:02;;;;;;;;;3.67;3.67;;;;;27.02;27.27;100880.75;4929825;28;45708;-89
2023/07/22 18:08:28;;;;;;;;;7.33;6.33;;;;;26.99;27.31;100886.41;4867614;28;46556;-91
2023/07/22 18:10:53;;;;;;;;;5.33;4.67;;;;;26.95;27.65;100875.22;4920386;28;45508;-89
2023/07/22 18:13:18;;;;;;;;;5.00;4.67;;;;;26.90;27.46;100886.31;4887797;28;45637;-91
2023/07/22 18:18:20;;;;;;;;;4.00;4.00;;;;;26.83;28.08;100871.94;5027094;23;47394;-88
2023/07/22 18:20:45;;;;;;;;;3.00;3.00;;;;;26.81;27.48;100873.94;4809370;29;46633;-87
2023/07/22 18:23:10;;;;;;;;;4.00;4.00;;;;;26.80;27.97;100873.09;4859568;29;45334;-88
2023/07/22 18:25:36;;;;;;;;;5.25;4.00;;;;;26.78;28.16;100872.44;4858050;29;45194;-87
2023/07/22 18:28:01;;;;;;;;;4.67;4.67;;;;;26.75;28.19;100862.06;4849427;29;45327;-88
2023/07/22 18:30:26;;;;;;;;;27.50;23.00;;;;;26.72;27.96;100878.41;4857855;29;46538;-88
2023/07/22 18:32:52;;;;;;;;;22.00;21.00;;;;;26.69;27.60;100860.03;4859847;29;45466;-88
2023/07/22 18:35:17;;;;;;;;;31.00;29.50;;;;;26.68;28.35;100875.22;4846185;29;45486;-88
2023/07/22 18:37:42;;;;;;;;;5.00;4.33;;;;;26.67;27.94;100870.03;4825763;29;45569;-88
2023/07/22 18:40:24;;;;;;;;;6.75;6.75;;;;;26.64;28.22;100881.88;4858229;29;46566;-88
2023/07/22 18:42:49;;;;;;;;;6.00;5.00;;;;;26.58;27.86;100865.63;4861680;29;45300;-89
2023/07/22 18:45:15;;;;;;;;;6.00;5.00;;;;;26.52;27.54;100867.94;4859923;29;45634;-88
2023/07/22 18:47:40;;;;;;;;;6.75;6.75;;;;;26.51;27.80;100879.59;4863134;29;45746;-89
2023/07/22 18:50:06;;;;;;;;;7.00;6.25;;;;;26.48;28.15;100871.09;4861035;29;46437;-90
2023/07/22 18:52:32;;;;;;;;;9.75;7.00;;;;;26.46;27.81;100871.25;4849825;29;45301;-90
2023/07/22 18:54:57;;;;;;;;;40.25;34.75;;;;;26.45;28.11;100876.72;4860911;29;45401;-89
2023/07/22 18:57:23;;;;;;;;;57.25;47.25;;;;;26.40;27.80;100867.38;4847658;29;45269;-91
2023/07/22 18:59:48;;;;;;;;;20.50;19.75;;;;;26.35;28.44;100872.34;4835667;29;45572;-88
2023/07/22 19:02:13;;;;;;;;;10.00;7.25;;;;;26.31;28.21;100865.66;4860957;29;46303;-90
2023/07/22 19:04:39;;;;;;;;;9.00;9.00;;;;;26.29;27.97;100872.97;4860584;29;45603;-89
2023/07/22 19:07:04;;;;;;;;;9.75;9.75;;;;;26.26;28.32;100863.44;4861894;29;45473;-89
2023/07/22 19:09:30;;;;;;;;;19.25;16.50;;;;;26.23;28.47;100860.19;4864493;29;48128;-89
2023/07/22 19:11:56;;;;;;;;;13.00;10.00;;;;;26.21;28.70;100864.88;4846594;29;45831;-89
2023/07/22 19:14:21;;;;;;;;;5.00;5.00;;;;;26.19;28.22;100864.19;4846282;29;45500;-88
2023/07/22 19:16:54;;;;;;;;;7.50;5.50;;;;;26.13;28.41;100860.31;4847555;29;45760;-88
2023/07/22 19:19:22;;;;;;;;;5.50;5.50;;;;;26.12;28.80;100861.31;4874490;29;45400;-89
2023/07/22 19:21:52;;;;;;;;;4.00;4.00;;;;;26.06;28.17;100857.41;4845550;29;45694;-90
2023/07/22 19:24:17;;;;;;;;;3.00;3.00;;;;;25.99;28.34;100859.03;4859753;29;45447;-88
2023/07/22 19:26:42;;;;;;;;;4.00;4.00;;;;;25.97;28.75;100863.69;4865655;29;45316;-87
2023/07/22 19:29:08;;;;;;;;;4.75;4.75;;;;;25.94;28.46;100862.16;4876609;29;46212;-90
2023/07/22 19:31:33;;;;;;;;;3.33;3.00;;;;;25.90;28.52;100860.78;4865246;29;45458;-88
2023/07/22 19:33:58;;;;;;;;;3.25;3.25;;;;;25.86;29.01;100856.75;4862645;29;45479;-88
2023/07/22 19:36:24;;;;;;;;;3.00;3.00;;;;;25.81;28.72;100859.88;4856053;29;44937;-88
2023/07/22 19:38:49;;;;;;;;;7.25;4.50;;;;;25.77;29.14;100861.16;4869346;29;45952;-87
2023/07/22 19:41:15;;;;;;;;;4.75;4.75;;;;;25.74;29.07;100864.16;4862144;29;45674;-88
2023/07/22 19:43:42;;;;;;;;;4.33;4.33;;;;;25.71;29.06;100859.97;4857269;29;45476;-89
2023/07/22 19:46:12;;;;;;;;;6.00;5.00;;;;;25.67;28.87;100857.75;4871357;29;45532;-88
2023/07/22 19:48:38;;;;;;;;;4.67;4.67;;;;;25.64;29.12;100866.88;4861222;29;46827;-88
2023/07/22 19:51:06;;;;;;;;;4.67;4.67;;;;;25.61;29.43;100860.03;4843345;29;45632;-89
2023/07/22 19:53:32;;;;;;;;;7.00;6.00;;;;;25.58;29.58;100862.16;4864147;29;45538;-88
2023/07/22 19:55:59;;;;;;;;;4.33;4.00;;;;;25.56;29.19;100867.66;4861954;29;45588;-88
2023/07/22 19:58:24;;;;;;;;;5.00;5.00;;;;;25.56;29.43;100872.13;4861105;29;45929;-88
2023/07/22 20:00:53;;;;;;;;;6.33;6.33;;;;;25.56;29.45;100877.47;4861079;29;45365;-88
2023/07/22 20:03:18;;;;;;;;;4.00;4.00;;;;;25.53;29.71;100877.72;4860069;29;45325;-88
2023/07/22 20:05:44;;;;;;;;;5.33;5.33;;;;;25.52;29.43;100879.56;4861868;29;45625;-88
2023/07/22 20:08:10;;;;;;;;;5.00;5.00;;;;;25.48;29.63;100879.03;4860937;29;45861;-88
2023/07/22 20:10:36;;;;;;;;;9.00;6.33;;;;;25.42;29.90;100879.63;4868770;29;44978;-87
2023/07/22 20:13:10;;;;;;;;;4.33;4.00;;;;;25.35;29.94;100876.72;4861204;29;45414;-89
2023/07/22 20:15:36;;;;;;;;;7.00;6.00;;;;;25.31;29.78;100880.66;4874207;29;45726;-88
2023/07/22 20:18:02;;;;;;;;;5.75;5.75;;;;;25.29;30.02;100874.66;4876207;29;46313;-88
2023/07/22 20:20:28;;;;;;;;;2.50;2.50;;;;;25.24;30.31;100886.72;4857071;29;45430;-88
2023/07/22 20:22:54;;;;;;;;;6.00;5.00;;;;;25.19;29.88;100884.53;4863751;29;45493;-90
2023/07/22 20:25:24;;;;;;;;;5.00;5.00;;;;;25.15;30.42;100888.47;4858685;29;45733;-90
2023/07/22 20:27:53;;;;;;;;;4.67;4.67;;;;;25.12;30.43;100888.78;4875666;29;45892;-88
2023/07/22 20:30:19;;;;;;;;;6.00;5.00;;;;;25.07;30.73;100894.50;4852957;29;45553;-87
2023/07/22 20:32:45;;;;;;;;;5.00;5.00;;;;;25.03;30.59;100888.66;4854953;29;45575;-89
2023/07/22 20:35:12;;;;;;;;;6.67;6.00;;;;;25.03;30.28;100893.13;4861685;29;45370;-88
2023/07/22 20:37:38;;;;;;;;;7.33;5.67;;;;;24.99;30.41;100897.09;4859404;29;48098;-89
2023/07/22 20:40:04;;;;;;;;;6.00;4.00;;;;;24.97;31.02;100894.56;4859934;29;45434;-88
2023/07/22 20:42:29;;;;;;;;;5.67;4.33;;;;;24.92;30.90;100894.16;4866237;29;45474;-88
2023/07/22 20:44:55;;;;;;;;;7.33;4.67;;;;;24.87;30.56;100891.94;4862013;29;45684;-88
2023/07/22 20:47:20;;;;;;;;;6.75;4.75;;;;;24.81;30.87;100896.00;4860192;29;45806;-88
2023/07/22 20:49:46;;;;;;;;;5.67;5.00;;;;;24.77;30.96;100891.94;4856968;29;45724;-88
2023/07/22 20:52:11;;;;;;;;;6.00;5.00;;;;;24.72;31.24;100894.22;4867586;29;45510;-88
2023/07/22 20:54:37;;;;;;;;;5.00;5.00;;;;;24.71;31.07;100895.16;4847724;29;45492;-88
2023/07/22 20:57:02;;;;;;;;;4.00;4.00;;;;;24.68;31.36;100898.97;4861254;29;47618;-89
2023/07/22 20:59:28;;;;;;;;;3.33;3.33;;;;;24.65;31.29;100896.59;4860391;29;45878;-89
2023/07/22 21:01:53;;;;;;;;;6.00;5.00;;;;;24.61;31.27;100905.00;4863886;29;45875;-88
2023/07/22 21:04:20;;;;;;;;;4.00;3.00;;;;;24.55;31.19;100907.28;4856959;29;45647;-88
2023/07/22 21:06:45;;;;;;;;;5.67;4.00;;;;;24.53;31.43;100903.06;4858743;29;47016;-89
2023/07/22 21:09:11;;;;;;;;;6.75;5.25;;;;;24.48;31.56;100900.81;4869292;29;45397;-88
2023/07/22 21:11:36;;;;;;;;;5.00;4.33;;;;;24.40;31.54;100890.06;4862451;29;45471;-89
2023/07/22 21:14:03;;;;;;;;;5.00;5.00;;;;;24.34;31.59;100904.75;4862163;29;45377;-89
2023/07/22 21:16:28;;;;;;;;;7.00;5.00;;;;;24.27;31.89;100901.84;4831908;29;47367;-88
2023/07/22 21:18:54;;;;;;;;;4.00;4.00;;;;;24.26;31.81;100904.66;4871202;29;45822;-89
2023/07/22 21:21:19;;;;;;;;;4.67;4.00;;;;;24.20;31.83;100914.00;4891540;29;45425;-88
2023/07/22 21:23:44;;;;;;;;;3.67;2.67;;;;;24.17;32.28;100908.16;4877544;29;45439;-88
2023/07/22 21:26:11;;;;;;;;;4.00;2.33;;;;;24.12;32.30;100905.91;4880005;29;48128;-88
2023/07/22 21:28:36;;;;;;;;;4.00;2.33;;;;;24.07;32.05;100911.59;4863123;29;45445;-89
2023/07/22 21:31:02;;;;;;;;;4.00;4.00;;;;;24.05;32.40;100910.06;4880022;29;45435;-89
2023/07/22 21:33:27;;;;;;;;;4.00;4.00;;;;;24.01;32.13;100910.34;4881541;29;45459;-87
2023/07/22 21:35:53;;;;;;;;;5.75;4.25;;;;;23.96;32.47;100914.41;4878006;29;45441;-88
